Time;durP1;ratioP1;P1;durP2;ratioP2;P2;SDS_P1;SDS_P2;PMS_P1;PMS_P2;Temp;Humidity;BMP_temperature;BMP_pressure;BME280_temperature;BME280_humidity;BME280_pressure;Samples;Min_cycle;Max_cycle;Signal;HPM_P1;HPM_P2
2024/02/09 00:01:36;;;;;;;;;;;;;;;23.78;25.60;96302.53;5108758;27;19927;-81
2024/02/09 00:04:03;;;;;;;;;;;;;;;22.35;27.05;96305.13;5105185;28;19923;-81
2024/02/09 00:06:30;;;;;;;;;;;;;;;19.69;31.10;96327.47;5104298;27;19959;-81
2024/02/09 00:08:56;;;;;;;;;;;;;;;21.90;28.80;96317.00;5113732;27;19928;-81
2024/02/09 00:11:22;;;;;;;;;;;;;;;23.47;26.22;96321.69;5109720;28;19916;-81
2024/02/09 00:13:48;;;;;;;;;;;;;;;21.84;28.40;96332.84;5109321;27;19966;-81
2024/02/09 00:16:14;;;;;;;;;;;;;;;22.69;27.29;96294.44;5100759;27;19980;-82
2024/02/09 00:18:40;;;;;;;;;;;;;;;22.68;27.26;96329.25;5100054;27;19920;-82
2024/02/09 00:21:06;;;;;;;;;;;;;;;23.66;26.37;96308.38;5105995;27;20377;-82
2024/02/09 00:23:32;;;;;;;;;;;;;;;24.78;24.75;96296.31;5104064;27;19920;-82
2024/02/09 00:26:00;;;;;;;;;;;;;;;23.43;26.11;96309.09;5107565;27;19931;-82
2024/02/09 00:28:27;;;;;;;;;;;;;;;21.78;28.52;96315.88;5102812;27;20014;-82
2024/02/09 00:30:54;;;;;;;;;;;;;;;22.44;27.85;96319.91;5102211;27;19920;-82
2024/02/09 00:33:20;;;;;;;;;;;;;;;23.23;26.54;96315.19;5106501;27;19920;-82
2024/02/09 00:35:46;;;;;;;;;;;;;;;23.98;25.88;96322.38;5107645;27;20482;-81
2024/02/09 00:38:15;;;;;;;;;;;;;;;24.82;24.75;96316.53;5104359;27;19920;-82
2024/02/09 00:40:41;;;;;;;;;;;;;;;21.81;28.33;96328.91;5103664;27;20013;-82
2024/02/09 00:43:07;;;;;;;;;;;;;;;19.04;32.84;96329.81;5102810;27;19927;-82
2024/02/09 00:45:36;;;;;;;;;;;;;;;20.53;30.33;96331.41;5100262;27;20301;-82
2024/02/09 00:48:03;;;;;;;;;;;;;;;18.83;32.57;96338.03;5099334;28;19920;-81
2024/02/09 00:50:30;;;;;;;;;;;;;;;19.27;32.34;96345.47;5100967;27;19920;-81
2024/02/09 00:53:00;;;;;;;;;;;;;;;19.88;31.38;96329.19;5107013;27;19931;-82
2024/02/09 00:55:30;;;;;;;;;;;;;;;21.97;27.99;96327.91;5107180;28;19963;-82
2024/02/09 00:57:56;;;;;;;;;;;;;;;19.40;31.41;96340.69;5102945;28;20332;-82
2024/02/09 01:00:22;;;;;;;;;;;;;;;22.32;27.73;96320.03;5102974;27;19969;-82
2024/02/09 01:02:51;;;;;;;;;;;;;;;23.28;26.13;96336.94;5110087;28;19926;-82
2024/02/09 01:05:18;;;;;;;;;;;;;;;22.20;27.20;96337.72;5106428;27;19916;-82
2024/02/09 01:07:46;;;;;;;;;;;;;;;20.77;29.31;96342.91;5096177;27;19938;-82
2024/02/09 01:10:12;;;;;;;;;;;;;;;20.65;29.44;96338.94;5099257;28;19916;-82
2024/02/09 02:45:51;;;;;;;;;;;;;;;23.28;25.34;96295.72;5101393;28;19924;-82
2024/02/09 03:04:56;;;;;;;;;;;;;;;23.06;25.54;96300.75;5098022;28;19930;-82
2024/02/09 03:07:22;;;;;;;;;;;;;;;22.12;26.87;96291.75;5095094;28;19952;-82
2024/02/09 03:09:48;;;;;;;;;;;;;;;22.29;26.45;96301.38;5094112;28;20031;-82
2024/02/09 03:12:14;;;;;;;;;;;;;;;22.79;25.73;96286.81;5090175;28;19939;-82
2024/02/09 03:14:40;;;;;;;;;;;;;;;22.52;25.99;96295.97;5094383;28;20002;-82
2024/02/09 03:17:06;;;;;;;;;;;;;;;21.42;27.27;96287.81;5092784;28;19920;-82
2024/02/09 03:19:35;;;;;;;;;;;;;;;21.33;27.98;96294.13;5106756;27;19922;-82
2024/02/09 03:22:02;;;;;;;;;;;;;;;21.03;27.96;96296.88;5097296;28;19920;-82
2024/02/09 03:24:28;;;;;;;;;;;;;;;20.37;29.11;96292.56;5109291;27;19931;-82
2024/02/09 03:26:54;;;;;;;;;;;;;;;21.96;26.97;96296.38;5100490;27;19931;-82
2024/02/09 03:29:20;;;;;;;;;;;;;;;21.49;27.06;96278.38;5104663;27;19915;-82
2024/02/09 03:31:48;;;;;;;;;;;;;;;22.11;26.65;96285.38;5108166;27;19985;-82
2024/02/09 03:34:14;;;;;;;;;;;;;;;22.00;26.59;96297.03;5109564;27;19923;-82
2024/02/09 03:36:41;;;;;;;;;;;;;;;22.76;25.76;96284.94;5108450;28;20387;-82
2024/02/09 03:39:08;;;;;;;;;;;;;;;23.09;25.30;96297.03;5099306;27;19920;-82
2024/02/09 03:41:34;;;;;;;;;;;;;;;22.97;25.29;96300.00;5096699;28;19920;-81
2024/02/09 03:44:03;;;;;;;;;;;;;;;22.81;25.67;96292.72;5097464;28;20411;-82
2024/02/09 03:46:32;;;;;;;;;;;;;;;23.21;25.40;96293.25;5095102;28;20274;-81
2024/02/09 03:48:58;;;;;;;;;;;;;;;23.44;24.50;96293.81;5096319;27;19941;-82
2024/02/09 03:51:25;;;;;;;;;;;;;;;22.43;25.89;96293.16;5099511;28;20001;-82
2024/02/09 03:53:51;;;;;;;;;;;;;;;23.11;25.16;96300.13;5099328;28;20380;-82
2024/02/09 03:56:17;;;;;;;;;;;;;;;24.07;24.25;96285.13;5095847;28;19920;-82
2024/02/09 03:58:45;;;;;;;;;;;;;;;24.31;23.57;96276.72;5095274;28;19920;-82
2024/02/09 04:01:11;;;;;;;;;;;;;;;23.32;24.53;96282.31;5102406;28;19926;-82
2024/02/09 04:03:37;;;;;;;;;;;;;;;23.58;24.86;96287.53;5098689;28;19938;-81
2024/02/09 04:06:05;;;;;;;;;;;;;;;24.38;23.46;96279.16;5100482;28;19973;-81
2024/02/09 04:08:31;;;;;;;;;;;;;;;25.04;22.66;96274.06;5123267;27;19916;-82
2024/02/09 04:10:57;;;;;;;;;;;;;;;24.38;23.42;96293.19;5107676;27;19927;-81
2024/02/09 04:13:23;;;;;;;;;;;;;;;22.42;25.81;96299.25;5093522;28;19920;-82
2024/02/09 04:15:50;;;;;;;;;;;;;;;23.52;24.45;96301.44;5094678;28;19920;-81
2024/02/09 04:18:16;;;;;;;;;;;;;;;24.47;23.46;96285.47;5099478;28;20403;-82
2024/02/09 04:20:42;;;;;;;;;;;;;;;24.71;23.40;96293.84;5094703;28;20258;-81
2024/02/09 04:23:10;;;;;;;;;;;;;;;24.90;23.00;96289.63;5094998;28;19923;-81
2024/02/09 04:25:36;;;;;;;;;;;;;;;25.34;22.45;96284.78;5095510;28;19976;-81
2024/02/09 04:28:03;;;;;;;;;;;;;;;25.49;22.21;96289.63;5092915;27;19929;-81
2024/02/09 04:30:30;;;;;;;;;;;;;;;25.71;22.19;96292.81;5077415;28;20016;-81
2024/02/09 04:32:56;;;;;;;;;;;;;;;24.89;23.06;96292.91;5105246;27;19974;-81
2024/02/09 04:35:24;;;;;;;;;;;;;;;25.05;22.71;96290.41;5097562;27;20425;-81
2024/02/09 04:37:51;;;;;;;;;;;;;;;24.86;23.11;96280.63;5097350;28;19934;-81
2024/02/09 04:40:19;;;;;;;;;;;;;;;24.55;23.46;96272.59;5096519;28;19920;-81
2024/02/09 04:42:45;;;;;;;;;;;;;;;24.59;23.49;96272.44;5090517;28;20007;-82
2024/02/09 04:45:11;;;;;;;;;;;;;;;24.78;23.45;96264.66;5098300;28;20000;-81
2024/02/09 04:47:37;;;;;;;;;;;;;;;25.41;22.54;96264.72;5092748;28;19920;-81
2024/02/09 04:50:04;;;;;;;;;;;;;;;25.54;22.43;96260.84;5093825;28;19920;-81
2024/02/09 04:52:30;;;;;;;;;;;;;;;25.65;22.07;96261.81;5095451;27;19920;-81
2024/02/09 04:54:56;;;;;;;;;;;;;;;24.99;22.86;96258.66;5101122;27;20006;-81
2024/02/09 04:57:22;;;;;;;;;;;;;;;24.91;22.95;96256.72;5110537;28;20277;-81
2024/02/09 04:59:48;;;;;;;;;;;;;;;24.33;23.80;96257.38;5103280;28;19923;-82
2024/02/09 05:02:14;;;;;;;;;;;;;;;24.46;23.57;96253.03;5103145;28;19939;-81
2024/02/09 05:04:40;;;;;;;;;;;;;;;24.72;23.16;96253.28;5099975;28;19920;-81
2024/02/09 05:07:06;;;;;;;;;;;;;;;24.58;23.34;96256.84;5096408;27;19920;-81
2024/02/09 05:09:32;;;;;;;;;;;;;;;23.62;24.43;96255.31;5100463;27;19923;-81
2024/02/09 05:12:01;;;;;;;;;;;;;;;23.76;24.48;96251.00;5097316;27;19956;-81
2024/02/09 05:14:27;;;;;;;;;;;;;;;24.02;24.01;96241.66;5094105;28;20330;-81
2024/02/09 05:16:54;;;;;;;;;;;;;;;23.73;24.20;96244.38;5093978;28;20002;-81
2024/02/09 05:19:20;;;;;;;;;;;;;;;23.98;24.11;96248.72;5107500;27;19961;-81
2024/02/09 05:21:46;;;;;;;;;;;;;;;24.32;23.79;96253.03;5101025;27;19926;-80
2024/02/09 05:24:12;;;;;;;;;;;;;;;24.55;23.29;96252.22;5109066;27;19920;-80
2024/02/09 05:26:38;;;;;;;;;;;;;;;24.51;23.48;96251.59;5099569;28;19928;-80
2024/02/09 05:29:04;;;;;;;;;;;;;;;24.33;23.56;96248.94;5099381;28;19931;-80
2024/02/09 05:31:30;;;;;;;;;;;;;;;23.90;23.94;96247.50;5102740;27;19951;-81
2024/02/09 05:33:56;;;;;;;;;;;;;;;23.81;24.38;96247.56;5108499;27;19966;-82
2024/02/09 05:36:27;;;;;;;;;;;;;;;24.55;23.68;96247.34;5101899;27;19930;-81
2024/02/09 05:38:53;;;;;;;;;;;;;;;24.80;23.27;96245.28;5081222;27;20015;-80
2024/02/09 05:41:20;;;;;;;;;;;;;;;24.80;23.40;96237.66;5101735;28;20381;-81
2024/02/09 05:43:47;;;;;;;;;;;;;;;25.04;22.79;96238.31;5096535;27;20279;-80
2024/02/09 05:46:14;;;;;;;;;;;;;;;24.64;23.20;96238.09;5099876;27;19927;-81
2024/02/09 05:48:41;;;;;;;;;;;;;;;24.68;23.32;96241.47;5109672;27;19965;-81
2024/02/09 05:51:12;;;;;;;;;;;;;;;24.62;23.64;96246.97;5105252;27;19927;-81
2024/02/09 05:53:40;;;;;;;;;;;;;;;24.81;23.04;96255.28;5104105;28;19939;-80
2024/02/09 05:56:33;;;;;;;;;;;;;;;23.83;24.20;96257.06;5103674;27;22073;-83
2024/02/09 05:59:04;;;;;;;;;;;;;;;22.47;25.91;96263.06;5102877;27;20298;-81
2024/02/09 06:01:31;;;;;;;;;;;;;;;21.99;26.76;96263.94;5088319;28;19920;-81
2024/02/09 06:03:57;;;;;;;;;;;;;;;23.14;25.45;96260.00;5094276;28;19984;-80
2024/02/09 06:06:23;;;;;;;;;;;;;;;23.79;24.48;96258.47;5109319;28;19935;-80
2024/02/09 06:08:50;;;;;;;;;;;;;;;24.04;24.43;96258.00;5099666;28;20410;-81
2024/02/09 06:11:16;;;;;;;;;;;;;;;24.07;24.44;96257.09;5100039;28;19923;-80
2024/02/09 06:13:45;;;;;;;;;;;;;;;23.75;24.62;96258.66;5093365;28;19916;-81
2024/02/09 06:16:14;;;;;;;;;;;;;;;24.62;23.49;96263.81;5097132;28;20407;-81
2024/02/09 06:18:42;;;;;;;;;;;;;;;24.67;23.87;96262.38;5133035;27;19947;-81
2024/02/09 06:21:09;;;;;;;;;;;;;;;25.16;22.82;96264.56;5134267;27;19968;-80
2024/02/09 06:23:38;;;;;;;;;;;;;;;25.00;22.84;96260.19;5124988;27;19931;-80
2024/02/09 06:26:04;;;;;;;;;;;;;;;25.05;23.07;96267.16;5099956;28;19928;-81
2024/02/09 06:28:31;;;;;;;;;;;;;;;24.73;23.42;96278.06;5099502;27;19920;-80
2024/02/09 06:30:57;;;;;;;;;;;;;;;24.49;23.70;96270.94;5082247;28;19920;-80
2024/02/09 06:33:23;;;;;;;;;;;;;;;24.74;23.40;96278.81;5106718;28;19924;-80
2024/02/09 06:35:49;;;;;;;;;;;;;;;24.84;23.55;96271.91;5112424;28;19966;-80
2024/02/09 06:38:17;;;;;;;;;;;;;;;25.27;23.30;96279.59;5113407;28;19919;-80
2024/02/09 06:40:43;;;;;;;;;;;;;;;25.72;22.60;96278.25;5095889;28;19916;-80
2024/02/09 06:43:09;;;;;;;;;;;;;;;25.89;22.48;96275.69;5093579;28;19927;-81
2024/02/09 06:45:35;;;;;;;;;;;;;;;26.09;22.29;96278.56;5094803;28;19920;-80
2024/02/09 06:48:08;;;;;;;;;;;;;;;26.20;22.09;96273.09;5092693;28;19920;-80
2024/02/09 06:50:34;;;;;;;;;;;;;;;25.95;22.21;96277.31;5093112;28;19923;-80
2024/02/09 06:53:01;;;;;;;;;;;;;;;25.53;22.65;96276.19;5096428;28;19927;-80
2024/02/09 06:55:27;;;;;;;;;;;;;;;25.12;23.40;96287.22;5098324;28;19924;-80
2024/02/09 06:57:54;;;;;;;;;;;;;;;25.23;23.22;96287.41;5106639;27;20036;-81
2024/02/09 07:00:20;;;;;;;;;;;;;;;25.32;23.25;96287.31;5106899;28;19927;-81
2024/02/09 07:02:47;;;;;;;;;;;;;;;24.92;23.16;96286.34;5115840;27;19926;-80
2024/02/09 07:05:15;;;;;;;;;;;;;;;24.71;23.70;96279.81;5117602;28;19923;-81
2024/02/09 07:07:43;;;;;;;;;;;;;;;24.50;24.08;96283.72;5117863;28;19916;-80
2024/02/09 07:10:10;;;;;;;;;;;;;;;24.14;24.53;96290.38;5110711;28;19916;-80
2024/02/09 07:12:37;;;;;;;;;;;;;;;24.69;24.44;96296.38;5096522;28;20317;-80
2024/02/09 07:15:03;;;;;;;;;;;;;;;24.70;23.91;96281.84;5097719;28;19913;-80
2024/02/09 07:17:29;;;;;;;;;;;;;;;24.93;23.97;96291.47;5097365;28;19916;-80
2024/02/09 07:19:55;;;;;;;;;;;;;;;25.15;23.84;96291.09;5096815;28;19920;-80
2024/02/09 07:22:21;;;;;;;;;;;;;;;25.51;23.30;96284.34;5121148;27;20395;-80
2024/02/09 07:24:47;;;;;;;;;;;;;;;25.54;23.14;96288.97;5137518;27;19924;-80
2024/02/09 07:27:14;;;;;;;;;;;;;;;25.92;23.21;96289.56;5137856;27;20436;-80
2024/02/09 07:29:40;;;;;;;;;;;;;;;25.82;23.22;96285.31;5137663;27;19915;-80
2024/02/09 07:32:07;;;;;;;;;;;;;;;25.86;23.03;96280.25;5095250;28;19916;-80
2024/02/09 07:34:33;;;;;;;;;;;;;;;25.71;23.32;96284.38;5097391;27;19920;-80
2024/02/09 07:36:59;;;;;;;;;;;;;;;25.68;23.44;96296.59;5097396;28;20006;-80
2024/02/09 07:39:25;;;;;;;;;;;;;;;25.84;23.16;96294.03;5113072;28;19978;-80
2024/02/09 07:41:51;;;;;;;;;;;;;;;25.87;23.22;96281.81;5115847;28;19916;-80
2024/02/09 07:44:17;;;;;;;;;;;;;;;26.10;22.84;96282.94;5109236;28;19920;-80
2024/02/09 07:46:44;;;;;;;;;;;;;;;26.36;22.56;96288.63;5096544;28;19920;-80
2024/02/09 07:49:10;;;;;;;;;;;;;;;25.49;23.34;96298.06;5105056;28;19915;-80
2024/02/09 07:51:36;;;;;;;;;;;;;;;25.29;23.96;96288.28;5115921;28;19916;-80
2024/02/09 07:54:02;;;;;;;;;;;;;;;25.45;23.43;96284.22;5116529;28;19973;-80
2024/02/09 07:56:31;;;;;;;;;;;;;;;25.66;23.72;96293.50;5108953;28;19924;-80
2024/02/09 07:58:58;;;;;;;;;;;;;;;25.57;23.35;96296.44;5116503;28;19923;-80
2024/02/09 08:01:24;;;;;;;;;;;;;;;25.76;23.48;96292.91;5116522;28;20128;-80
2024/02/09 08:03:53;;;;;;;;;;;;;;;25.70;23.52;96296.88;5115764;28;19916;-80
2024/02/09 08:06:21;;;;;;;;;;;;;;;25.73;23.77;96295.91;5118965;27;19915;-80
2024/02/09 08:08:52;;;;;;;;;;;;;;;25.92;23.56;96289.56;5115504;27;19972;-81
2024/02/09 08:11:19;;;;;;;;;;;;;;;26.09;23.32;96293.38;5108985;27;20359;-80
2024/02/09 08:13:45;;;;;;;;;;;;;;;26.05;23.00;96292.81;5105845;27;20381;-80
2024/02/09 08:16:11;;;;;;;;;;;;;;;26.55;23.07;96290.69;5112108;27;19916;-80
2024/02/09 08:18:37;;;;;;;;;;;;;;;26.62;23.68;96286.66;5103083;27;19916;-80
2024/02/09 08:21:03;;;;;;;;;;;;;;;26.61;22.98;96293.56;5116638;27;19926;-80
2024/02/09 08:23:30;;;;;;;;;;;;;;;26.62;23.11;96287.44;5102116;28;19920;-80
2024/02/09 08:25:56;;;;;;;;;;;;;;;26.19;23.55;96279.97;5102285;27;20421;-80
2024/02/09 08:28:22;;;;;;;;;;;;;;;26.39;23.50;96282.03;5096812;27;20340;-80
2024/02/09 08:30:48;;;;;;;;;;;;;;;26.37;23.67;96279.69;5106302;27;19927;-80
2024/02/09 08:33:14;;;;;;;;;;;;;;;26.64;24.20;96278.50;5103348;27;19931;-80
2024/02/09 08:35:40;;;;;;;;;;;;;;;27.01;23.96;96282.25;5102148;27;19924;-80
2024/02/09 08:38:07;;;;;;;;;;;;;;;27.20;23.22;96285.50;5105964;27;20296;-80
2024/02/09 08:40:33;;;;;;;;;;;;;;;26.75;23.22;96278.63;5103479;27;19924;-80
2024/02/09 08:43:00;;;;;;;;;;;;;;;27.00;23.32;96283.50;5095585;28;19928;-81
2024/02/09 08:45:27;;;;;;;;;;;;;;;27.20;23.15;96294.75;5094649;28;19970;-80
2024/02/09 08:47:53;;;;;;;;;;;;;;;27.44;24.15;96296.50;5109555;27;19924;-81
2024/02/09 08:50:19;;;;;;;;;;;;;;;27.69;22.89;96285.19;5115655;28;20011;-80
2024/02/09 08:52:46;;;;;;;;;;;;;;;27.94;22.48;96295.59;5112570;27;19955;-81
2024/02/09 08:55:12;;;;;;;;;;;;;;;27.68;23.24;96283.63;5114247;27;19989;-80
2024/02/09 08:57:38;;;;;;;;;;;;;;;27.19;23.37;96290.34;5113271;27;19916;-80
2024/02/09 09:00:05;;;;;;;;;;;;;;;27.42;23.85;96282.16;5114249;28;19919;-80
2024/02/09 09:02:31;;;;;;;;;;;;;;;27.39;23.82;96287.50;5101065;27;19946;-80
2024/02/09 09:04:57;;;;;;;;;;;;;;;26.81;24.32;96287.94;5105907;27;20281;-80
2024/02/09 09:07:23;;;;;;;;;;;;;;;26.70;24.60;96287.75;5113575;27;20355;-80
2024/02/09 09:09:49;;;;;;;;;;;;;;;26.84;24.37;96291.81;5109291;27;20403;-80
2024/02/09 09:12:15;;;;;;;;;;;;;;;27.13;24.49;96286.72;5118995;27;19946;-80
2024/02/09 09:14:42;;;;;;;;;;;;;;;27.28;24.40;96278.16;5103731;27;20006;-80
2024/02/09 09:17:08;;;;;;;;;;;;;;;27.65;23.31;96281.06;5100353;28;19920;-80
2024/02/09 09:19:34;;;;;;;;;;;;;;;27.54;24.03;96281.72;5098537;28;19915;-80
2024/02/09 09:22:00;;;;;;;;;;;;;;;27.71;23.50;96271.34;5110993;28;20011;-80
2024/02/09 09:24:26;;;;;;;;;;;;;;;27.92;23.01;96267.13;5105945;28;19920;-80
2024/02/09 09:26:55;;;;;;;;;;;;;;;27.92;23.43;96269.16;5109480;27;20349;-80
2024/02/09 09:29:21;;;;;;;;;;;;;;;28.43;23.57;96256.88;5108384;27;19919;-80
2024/02/09 09:31:48;;;;;;;;;;;;;;;28.67;23.39;96260.88;5105586;28;20028;-80
2024/02/09 09:34:14;;;;;;;;;;;;;;;28.78;23.71;96267.84;5094560;28;20444;-80
2024/02/09 09:36:40;;;;;;;;;;;;;;;28.94;23.59;96262.22;5101927;28;20021;-80
2024/02/09 09:39:06;;;;;;;;;;;;;;;29.19;22.70;96261.28;5093955;28;20027;-80
2024/02/09 09:41:36;;;;;;;;;;;;;;;28.72;23.89;96253.69;5083390;28;20006;-80
2024/02/09 09:44:02;;;;;;;;;;;;;;;28.59;23.77;96254.16;5106344;28;20295;-80
2024/02/09 09:46:34;;;;;;;;;;;;;;;28.07;24.21;96264.19;5103122;28;19958;-80
2024/02/09 09:49:01;;;;;;;;;;;;;;;27.96;24.38;96266.88;5076065;28;19928;-80
2024/02/09 09:51:30;;;;;;;;;;;;;;;27.69;24.50;96254.16;5100323;28;19919;-80
2024/02/09 09:53:57;;;;;;;;;;;;;;;27.42;25.01;96253.97;5114387;28;20018;-80
2024/02/09 09:56:24;;;;;;;;;;;;;;;27.72;25.46;96255.97;5114110;28;19923;-80
2024/02/09 09:58:50;;;;;;;;;;;;;;;28.12;24.91;96245.72;5114213;28;19919;-80
2024/02/09 10:01:18;;;;;;;;;;;;;;;28.32;25.23;96248.38;5113162;28;19915;-80
2024/02/09 10:03:45;;;;;;;;;;;;;;;28.77;24.36;96252.16;5105568;28;19919;-80
2024/02/09 10:06:12;;;;;;;;;;;;;;;28.57;24.16;96236.94;5100135;27;19973;-80
2024/02/09 10:08:38;;;;;;;;;;;;;;;28.13;24.93;96242.41;5103392;28;19927;-80
2024/02/09 10:11:07;;;;;;;;;;;;;;;28.38;24.48;96237.91;5113642;28;19919;-80
2024/02/09 10:13:34;;;;;;;;;;;;;;;28.40;24.74;96240.97;5109510;28;19916;-80
2024/02/09 10:16:02;;;;;;;;;;;;;;;28.23;25.71;96238.09;5093517;28;19916;-81
2024/02/09 10:18:32;;;;;;;;;;;;;;;28.57;25.01;96233.31;5096404;28;19927;-80
2024/02/09 10:20:58;;;;;;;;;;;;;;;29.07;24.47;96236.28;5105758;28;19920;-80
2024/02/09 10:23:27;;;;;;;;;;;;;;;28.97;24.66;96235.75;5093928;28;19920;-80
2024/02/09 10:25:55;;;;;;;;;;;;;;;29.46;24.27;96227.84;5093406;28;19920;-80
2024/02/09 10:28:23;;;;;;;;;;;;;;;29.01;24.86;96218.56;5093322;28;19912;-80
2024/02/09 10:30:52;;;;;;;;;;;;;;;28.87;25.28;96220.31;5094941;28;19920;-80
2024/02/09 10:33:19;;;;;;;;;;;;;;;28.74;24.89;96205.94;5098345;28;20288;-81
2024/02/09 10:35:46;;;;;;;;;;;;;;;28.97;25.85;96203.91;5093386;28;20277;-80
2024/02/09 10:38:12;;;;;;;;;;;;;;;29.33;24.33;96195.22;5075785;28;20359;-80
2024/02/09 10:40:38;;;;;;;;;;;;;;;29.56;24.61;96198.81;5108527;28;19916;-80
2024/02/09 10:43:04;;;;;;;;;;;;;;;29.62;24.79;96195.94;5110646;28;19920;-80
2024/02/09 10:45:32;;;;;;;;;;;;;;;29.57;24.55;96188.25;5107403;28;20361;-80
2024/02/09 10:47:59;;;;;;;;;;;;;;;29.38;25.44;96191.59;5092854;28;19924;-80
2024/02/09 10:50:28;;;;;;;;;;;;;;;29.70;24.67;96188.47;5093042;28;20354;-80
2024/02/09 10:52:55;;;;;;;;;;;;;;;29.68;24.69;96189.00;5093154;28;20036;-80
2024/02/09 10:55:22;;;;;;;;;;;;;;;29.38;25.07;96188.03;5095791;28;19959;-80
2024/02/09 10:57:49;;;;;;;;;;;;;;;27.71;26.80;96186.75;5112666;28;19995;-80
2024/02/09 11:00:16;;;;;;;;;;;;;;;26.98;27.78;96186.72;5113358;28;19927;-80
2024/02/09 11:02:43;;;;;;;;;;;;;;;25.74;29.38;96185.78;5113575;28;20281;-80
2024/02/09 11:05:14;;;;;;;;;;;;;;;27.40;28.29;96184.75;5104494;28;19920;-80
2024/02/09 11:07:41;;;;;;;;;;;;;;;28.29;27.38;96176.78;5111709;28;20369;-80
2024/02/09 11:10:08;;;;;;;;;;;;;;;29.07;26.21;96177.72;5113447;28;19916;-80
2024/02/09 11:12:34;;;;;;;;;;;;;;;29.58;25.12;96173.59;5096625;28;19916;-80
2024/02/09 11:15:12;;;;;;;;;;;;;;;29.80;24.14;96173.56;5112249;28;19924;-80
2024/02/09 11:17:42;;;;;;;;;;;;;;;30.09;24.24;96172.97;5098289;28;19920;-80
2024/02/09 11:20:09;;;;;;;;;;;;;;;30.17;24.25;96169.59;5101971;28;19975;-81
2024/02/09 11:22:36;;;;;;;;;;;;;;;29.96;24.41;96164.28;5098290;28;19951;-82
2024/02/09 11:25:02;;;;;;;;;;;;;;;30.16;24.17;96163.16;5105595;28;19937;-81
2024/02/09 11:27:29;;;;;;;;;;;;;;;29.75;24.68;96162.25;5112934;28;19916;-81
2024/02/09 11:29:55;;;;;;;;;;;;;;;29.80;24.85;96155.84;5104305;28;19928;-81
2024/02/09 11:32:21;;;;;;;;;;;;;;;30.01;24.50;96142.91;5097443;28;20014;-81
2024/02/09 11:34:48;;;;;;;;;;;;;;;29.85;25.04;96149.38;5106840;28;19922;-81
2024/02/09 11:37:14;;;;;;;;;;;;;;;29.18;25.41;96146.66;5112689;28;19916;-81
2024/02/09 11:39:41;;;;;;;;;;;;;;;27.83;27.61;96139.63;5114907;28;19915;-81
2024/02/09 11:42:08;;;;;;;;;;;;;;;28.58;27.24;96133.22;5117052;28;19916;-81
2024/02/09 11:44:35;;;;;;;;;;;;;;;28.90;26.31;96130.97;5116439;28;19970;-79
2024/02/09 11:47:02;;;;;;;;;;;;;;;29.33;26.26;96135.84;5116047;28;19916;-80
2024/02/09 11:49:28;;;;;;;;;;;;;;;29.99;25.74;96131.34;5109370;28;19963;-81
2024/02/09 11:52:04;;;;;;;;;;;;;;;30.27;25.21;96119.88;5106341;27;20034;-80
2024/02/09 11:54:31;;;;;;;;;;;;;;;30.29;25.44;96129.38;5117445;27;20093;-80
2024/02/09 11:56:57;;;;;;;;;;;;;;;30.50;26.56;96127.72;5109398;27;20384;-81
2024/02/09 11:59:24;;;;;;;;;;;;;;;30.77;24.73;96123.94;5102109;27;20014;-80
2024/02/09 12:01:53;;;;;;;;;;;;;;;30.97;26.35;96127.69;5111843;27;20360;-80
2024/02/09 12:04:20;;;;;;;;;;;;;;;31.10;25.08;96125.78;5102355;28;19974;-80
2024/02/09 12:06:46;;;;;;;;;;;;;;;31.48;24.35;96118.22;5096060;28;19923;-80
2024/02/09 12:09:15;;;;;;;;;;;;;;;31.30;24.06;96119.66;5095823;28;20265;-80
2024/02/09 12:11:41;;;;;;;;;;;;;;;31.34;23.58;96119.38;5095743;28;20401;-80
2024/02/09 12:14:07;;;;;;;;;;;;;;;31.23;24.63;96110.94;5096079;28;19912;-80
2024/02/09 12:16:33;;;;;;;;;;;;;;;31.56;25.02;96113.47;5095741;28;20686;-80
2024/02/09 12:19:01;;;;;;;;;;;;;;;31.85;23.55;96111.88;5095868;28;20205;-80
2024/02/09 12:21:28;;;;;;;;;;;;;;;31.90;24.25;96130.91;5097377;28;19989;-80
2024/02/09 12:23:55;;;;;;;;;;;;;;;31.85;23.52;96134.59;5095705;28;19920;-80
2024/02/09 12:26:21;;;;;;;;;;;;;;;31.91;24.17;96138.88;5096680;28;19967;-80
2024/02/09 12:28:47;;;;;;;;;;;;;;;31.82;23.79;96127.91;5095653;28;20007;-80
2024/02/09 12:31:16;;;;;;;;;;;;;;;31.84;24.15;96133.81;5104654;28;19916;-80
2024/02/09 12:33:46;;;;;;;;;;;;;;;31.77;24.11;96120.22;5097583;28;20412;-80
2024/02/09 12:36:13;;;;;;;;;;;;;;;31.25;24.62;96105.53;5115811;28;19916;-80
2024/02/09 12:38:42;;;;;;;;;;;;;;;30.47;26.13;96114.63;5102002;28;19960;-80
2024/02/09 12:41:09;;;;;;;;;;;;;;;30.81;25.10;96103.06;5096046;28;20015;-80
2024/02/09 12:43:35;;;;;;;;;;;;;;;30.52;26.06;96101.72;5095184;28;20293;-80
2024/02/09 12:46:04;;;;;;;;;;;;;;;31.03;25.49;96111.41;5094917;28;19923;-79
2024/02/09 12:48:31;;;;;;;;;;;;;;;30.83;25.71;96114.63;5101821;27;19920;-80
2024/02/09 12:50:57;;;;;;;;;;;;;;;30.88;24.60;96116.66;5114978;28;19916;-80
2024/02/09 12:53:24;;;;;;;;;;;;;;;30.18;25.27;96112.44;5115250;28;19931;-80
2024/02/09 12:55:50;;;;;;;;;;;;;;;27.49;28.82;96106.91;5101205;27;19927;-80
2024/02/09 12:58:16;;;;;;;;;;;;;;;27.47;29.10;96107.41;5097254;28;19916;-79
2024/02/09 13:00:43;;;;;;;;;;;;;;;26.59;29.95;96108.25;5094843;28;19916;-80
2024/02/09 13:03:10;;;;;;;;;;;;;;;25.37;31.61;96115.25;5094680;28;19916;-80
2024/02/09 13:05:36;;;;;;;;;;;;;;;25.64;31.87;96110.53;5095612;28;20285;-80
2024/02/09 13:08:02;;;;;;;;;;;;;;;26.31;30.50;96115.66;5094837;28;20291;-80
2024/02/09 13:10:28;;;;;;;;;;;;;;;27.77;28.45;96111.41;5094595;28;19916;-80
2024/02/09 13:12:54;;;;;;;;;;;;;;;25.50;32.04;96117.75;5109015;28;19915;-80
2024/02/09 13:15:21;;;;;;;;;;;;;;;24.14;33.75;96119.34;5100684;28;19920;-80
2024/02/09 13:17:47;;;;;;;;;;;;;;;25.34;31.93;96119.03;5093988;28;20300;-80
2024/02/09 13:20:18;;;;;;;;;;;;;;;24.96;32.49;96115.66;5094572;28;19912;-80
2024/02/09 13:22:47;;;;;;;;;;;;;;;24.67;32.55;96122.81;5111600;28;19927;-79
2024/02/09 13:25:13;;;;;;;;;;;;;;;24.36;33.15;96121.78;5099845;28;19932;-80
2024/02/09 13:27:41;;;;;;;;;;;;;;;24.76;32.33;96124.81;5099565;28;19933;-80
2024/02/09 13:30:08;;;;;;;;;;;;;;;24.64;32.05;96117.44;5106216;28;20388;-79
2024/02/09 13:32:35;;;;;;;;;;;;;;;23.62;33.20;96120.81;5106780;28;19919;-80
2024/02/09 13:35:10;;;;;;;;;;;;;;;24.10;33.09;96121.56;5097859;28;19920;-80
2024/02/09 13:37:40;;;;;;;;;;;;;;;24.18;32.60;96127.56;5102110;28;19916;-79
2024/02/09 13:40:08;;;;;;;;;;;;;;;23.11;34.38;96131.38;5100140;28;19920;-79
2024/02/09 13:42:36;;;;;;;;;;;;;;;21.72;36.25;96136.16;5094234;28;19922;-79
2024/02/09 13:45:02;;;;;;;;;;;;;;;20.30;39.22;96147.91;5094408;28;20289;-79
2024/02/09 13:47:30;;;;;;;;;;;;;;;20.36;38.58;96143.28;5098098;27;19954;-80
2024/02/09 13:49:56;;;;;;;;;;;;;;;20.05;39.35;96151.56;5101408;27;19923;-79
2024/02/09 13:52:22;;;;;;;;;;;;;;;21.04;37.20;96147.78;5106110;27;20007;-79
2024/02/09 13:54:48;;;;;;;;;;;;;;;21.33;36.70;96142.63;5097191;27;19928;-79
2024/02/09 13:57:16;;;;;;;;;;;;;;;22.96;33.52;96147.31;5102721;27;20427;-79
2024/02/09 13:59:42;;;;;;;;;;;;;;;20.85;36.88;96148.94;5104058;27;19927;-79
2024/02/09 14:02:08;;;;;;;;;;;;;;;20.47;38.48;96149.22;5096798;28;20011;-79
2024/02/09 14:04:37;;;;;;;;;;;;;;;21.17;36.65;96140.09;5109143;28;20018;-79
2024/02/09 14:07:04;;;;;;;;;;;;;;;22.39;34.15;96149.16;5103519;28;20006;-79
2024/02/09 14:09:35;;;;;;;;;;;;;;;22.20;34.71;96144.84;5096521;28;20282;-79
2024/02/09 14:12:02;;;;;;;;;;;;;;;22.78;33.39;96136.22;5099889;27;19981;-78
2024/02/09 14:14:28;;;;;;;;;;;;;;;24.85;30.70;96126.72;5086049;28;20382;-79
2024/02/09 14:16:54;;;;;;;;;;;;;;;25.49;29.23;96123.84;5101315;27;19994;-79
2024/02/09 14:19:20;;;;;;;;;;;;;;;24.75;30.24;96126.03;5101181;28;19931;-79
2024/02/09 14:21:47;;;;;;;;;;;;;;;26.22;28.41;96129.13;5093385;28;20406;-78
2024/02/09 14:24:13;;;;;;;;;;;;;;;27.37;26.66;96123.00;5099789;28;19943;-79
2024/02/09 14:26:42;;;;;;;;;;;;;;;27.79;25.90;96122.97;5102463;28;19924;-79
2024/02/09 14:29:09;;;;;;;;;;;;;;;28.00;25.59;96113.06;5099414;28;19987;-79
2024/02/09 14:31:35;;;;;;;;;;;;;;;28.35;24.90;96123.94;5101755;28;20277;-79
2024/02/09 14:34:01;;;;;;;;;;;;;;;28.89;24.26;96123.78;5104489;28;19926;-79
2024/02/09 14:36:27;;;;;;;;;;;;;;;28.20;24.91;96120.56;5105985;28;19916;-79